createdAt,value
2024-01-24T00:00:32.496Z,4.26
2024-01-24T00:02:58.931Z,4.18
2024-01-24T00:05:25.375Z,3.38
2024-01-24T00:07:51.777Z,3.24
2024-01-24T00:10:18.161Z,3.26
2024-01-24T00:12:44.595Z,3.89
2024-01-24T00:15:11.038Z,6.72
2024-01-24T00:17:37.480Z,6.10
2024-01-24T00:20:03.907Z,3.77
2024-01-24T00:22:30.287Z,3.64
2024-01-24T00:24:56.686Z,3.74
2024-01-24T00:27:23.135Z,3.19
2024-01-24T00:29:49.541Z,4.38
2024-01-24T00:32:15.956Z,5.20
2024-01-24T00:34:42.404Z,2.86
2024-01-24T00:37:08.945Z,2.46
2024-01-24T00:39:35.401Z,2.06
2024-01-24T00:42:01.808Z,2.31
2024-01-24T00:44:28.218Z,2.41
2024-01-24T00:46:54.617Z,2.69
2024-01-24T00:49:21.171Z,2.78
2024-01-24T00:51:47.695Z,2.55
2024-01-24T00:54:14.177Z,2.45
2024-01-24T00:56:40.578Z,3.24
2024-01-24T00:59:07.032Z,3.12
2024-01-24T01:01:33.468Z,3.11
2024-01-24T01:04:00.021Z,3.05
2024-01-24T01:06:26.532Z,3.39
2024-01-24T01:08:53.060Z,2.89
2024-01-24T01:11:19.474Z,3.19
2024-01-24T01:13:45.869Z,3.69
2024-01-24T01:16:12.297Z,5.11
2024-01-24T01:18:38.774Z,4.02
2024-01-24T01:21:05.328Z,3.34
2024-01-24T01:23:31.709Z,3.15
2024-01-24T01:25:58.103Z,3.20
2024-01-24T01:28:24.506Z,2.89
2024-01-24T01:30:50.932Z,2.77
2024-01-24T01:33:17.570Z,3.08
2024-01-24T01:35:44.086Z,3.20
2024-01-24T01:38:10.546Z,3.07
2024-01-24T01:40:36.941Z,3.08
2024-01-24T01:43:03.357Z,3.26
2024-01-24T01:45:29.772Z,2.91
2024-01-24T01:47:56.262Z,2.85
2024-01-24T01:50:22.691Z,2.79
2024-01-24T01:52:49.080Z,2.68
2024-01-24T01:55:15.576Z,2.32
2024-01-24T01:57:42.076Z,2.59
2024-01-24T02:00:08.512Z,2.49
2024-01-24T02:02:34.975Z,2.49
2024-01-24T02:05:01.421Z,2.62
2024-01-24T02:07:27.859Z,2.56
2024-01-24T02:09:54.328Z,2.10
2024-01-24T02:12:20.844Z,2.94
2024-01-24T02:14:47.277Z,6.22
2024-01-24T02:17:13.666Z,3.60
2024-01-24T02:19:40.124Z,2.98
2024-01-24T02:22:06.630Z,2.85
2024-01-24T02:24:33.077Z,2.79
2024-01-24T02:26:59.503Z,3.78
2024-01-24T02:29:25.898Z,4.47
2024-01-24T02:31:52.307Z,4.39
2024-01-24T02:34:18.815Z,3.40
2024-01-24T02:36:45.410Z,2.89
2024-01-24T02:39:11.835Z,2.60
2024-01-24T02:41:38.289Z,2.45
2024-01-24T02:44:04.765Z,2.66
2024-01-24T02:46:31.143Z,2.54
2024-01-24T02:48:57.698Z,2.54
2024-01-24T02:51:24.202Z,2.48
2024-01-24T02:53:50.690Z,2.23
2024-01-24T02:56:17.088Z,2.28
2024-01-24T02:58:43.611Z,2.21
2024-01-24T03:01:10.082Z,2.21
2024-01-24T03:03:36.711Z,2.29
2024-01-24T03:06:03.170Z,2.24
2024-01-24T03:08:29.586Z,2.29
2024-01-24T03:10:55.995Z,2.31
2024-01-24T03:13:22.446Z,2.32
2024-01-24T03:15:48.985Z,2.47
2024-01-24T03:18:15.500Z,2.38
2024-01-24T03:20:41.940Z,2.23
2024-01-24T03:23:08.335Z,2.61
2024-01-24T03:25:34.824Z,2.44
2024-01-24T03:28:01.229Z,2.36
2024-01-24T03:30:27.639Z,2.33
2024-01-24T03:32:54.113Z,2.61
2024-01-24T03:35:20.530Z,2.76
2024-01-24T03:37:46.902Z,2.10
2024-01-24T03:40:13.524Z,2.35
2024-01-24T03:42:39.974Z,2.19
2024-01-24T03:45:06.385Z,1.98
2024-01-24T03:47:32.814Z,2.25
2024-01-24T03:49:59.255Z,2.15
2024-01-24T03:52:26.636Z,2.08
2024-01-24T03:54:53.072Z,2.75
2024-01-24T03:57:19.514Z,3.66
2024-01-24T03:59:45.905Z,4.45
2024-01-24T04:02:13.449Z,4.13
2024-01-24T04:04:40.116Z,4.32
2024-01-24T04:07:06.722Z,3.73
2024-01-24T04:09:33.331Z,3.82
2024-01-24T04:11:59.744Z,3.36
2024-01-24T04:14:26.146Z,3.16
2024-01-24T04:16:52.541Z,4.33
2024-01-24T04:19:19.110Z,5.61
2024-01-24T04:21:45.684Z,3.66
2024-01-24T04:24:12.504Z,3.57
2024-01-24T04:26:38.984Z,6.84
2024-01-24T04:29:05.375Z,5.49
2024-01-24T04:31:31.861Z,2.92
2024-01-24T04:33:58.451Z,3.18
2024-01-24T04:36:25.001Z,2.51
2024-01-24T04:38:51.423Z,2.84
2024-01-24T04:41:17.806Z,2.90
2024-01-24T04:43:44.205Z,3.20
2024-01-24T04:46:10.628Z,3.70
2024-01-24T04:48:37.122Z,3.81
2024-01-24T04:51:03.641Z,4.11
2024-01-24T04:53:30.033Z,3.84
2024-01-24T04:55:56.493Z,3.66
2024-01-24T04:58:22.896Z,3.11
2024-01-24T05:00:49.438Z,2.50
2024-01-24T05:03:15.966Z,2.42
2024-01-24T05:05:42.361Z,2.14
2024-01-24T05:08:08.807Z,2.29
2024-01-24T05:10:35.194Z,2.07
2024-01-24T05:13:01.610Z,2.18
2024-01-24T05:15:28.052Z,1.88
2024-01-24T05:17:54.607Z,2.51
2024-01-24T05:20:21.040Z,2.80
2024-01-24T05:22:47.440Z,2.93
2024-01-24T05:25:13.842Z,2.86
2024-01-24T05:27:40.248Z,2.35
2024-01-24T05:30:12.367Z,2.31
2024-01-24T05:32:46.374Z,2.28
2024-01-24T05:35:12.814Z,2.44
2024-01-24T05:37:39.214Z,3.87
2024-01-24T05:40:05.643Z,5.81
2024-01-24T05:42:32.117Z,7.59
2024-01-24T05:44:58.550Z,9.04
2024-01-24T05:47:25.049Z,8.11
2024-01-24T05:49:51.560Z,7.46
2024-01-24T05:52:18.021Z,6.66
2024-01-24T05:54:44.435Z,7.19
2024-01-24T05:57:10.844Z,6.53
2024-01-24T05:59:37.250Z,5.08
2024-01-24T06:02:03.729Z,5.51
2024-01-24T06:04:30.391Z,5.82
2024-01-24T06:06:57.054Z,6.01
2024-01-24T06:09:23.521Z,5.67
2024-01-24T06:11:50.151Z,5.29
2024-01-24T06:14:16.718Z,4.03
2024-01-24T06:16:43.224Z,4.40
2024-01-24T06:19:09.727Z,4.15
2024-01-24T06:21:36.171Z,4.56
2024-01-24T06:24:02.611Z,4.57
2024-01-24T06:26:29.037Z,4.28
2024-01-24T06:28:55.500Z,4.69
2024-01-24T06:31:21.992Z,4.63
2024-01-24T06:33:48.555Z,5.04
2024-01-24T06:36:15.192Z,4.89
2024-01-24T06:38:42.795Z,7.55
2024-01-24T06:41:10.114Z,10.12
2024-01-24T06:43:36.539Z,10.42
2024-01-24T06:46:03.053Z,9.01
2024-01-24T06:48:29.551Z,5.14
2024-01-24T06:50:56.032Z,4.70
2024-01-24T06:53:22.469Z,5.24
2024-01-24T06:55:48.861Z,4.88
2024-01-24T06:58:15.239Z,4.40
2024-01-24T07:00:41.746Z,4.12
2024-01-24T07:03:08.258Z,4.31
2024-01-24T07:05:34.730Z,4.37
2024-01-24T07:08:01.096Z,4.53
2024-01-24T07:10:28.118Z,5.05
2024-01-24T07:12:54.577Z,5.15
2024-01-24T07:15:21.061Z,4.50
2024-01-24T07:17:47.853Z,4.37
2024-01-24T07:20:14.588Z,3.91
2024-01-24T07:22:41.104Z,4.57
2024-01-24T07:25:07.531Z,4.27
2024-01-24T07:27:35.784Z,3.79
2024-01-24T07:30:02.382Z,3.52
2024-01-24T07:32:28.855Z,3.26
2024-01-24T07:34:55.384Z,3.15
2024-01-24T07:37:21.828Z,3.32
2024-01-24T07:39:48.235Z,3.24
2024-01-24T07:42:15.199Z,3.51
2024-01-24T07:44:41.860Z,3.85
2024-01-24T07:47:08.481Z,3.53
2024-01-24T07:49:37.578Z,3.77
2024-01-24T07:52:05.406Z,3.68
2024-01-24T07:54:31.950Z,3.38
2024-01-24T07:56:58.988Z,3.93
2024-01-24T07:59:25.535Z,4.12
2024-01-24T08:01:51.985Z,4.18
2024-01-24T08:04:19.155Z,3.86
2024-01-24T08:06:46.080Z,3.91
2024-01-24T08:09:13.605Z,3.71
2024-01-24T08:11:40.171Z,3.84
2024-01-24T08:14:08.273Z,3.81
2024-01-24T08:16:34.729Z,3.82
2024-01-24T08:19:01.485Z,3.87
2024-01-24T08:21:27.921Z,3.24
2024-01-24T08:23:54.326Z,3.48
2024-01-24T08:26:20.778Z,3.53
2024-01-24T08:28:47.704Z,3.62
2024-01-24T08:31:14.145Z,6.49
2024-01-24T08:33:40.707Z,14.51
2024-01-24T08:36:08.027Z,11.99
2024-01-24T08:38:34.720Z,5.11
2024-01-24T08:41:01.208Z,4.05
2024-01-24T08:43:27.638Z,5.98
2024-01-24T08:45:54.060Z,4.38
2024-01-24T08:48:20.535Z,3.37
2024-01-24T08:50:46.991Z,3.82
2024-01-24T08:53:13.439Z,3.76
2024-01-24T08:55:40.042Z,3.59
2024-01-24T08:58:06.595Z,3.64
2024-01-24T09:00:33.243Z,3.88
2024-01-24T09:03:00.152Z,3.88
2024-01-24T09:05:26.607Z,3.63
2024-01-24T09:07:53.566Z,3.66
2024-01-24T09:10:20.028Z,3.61
2024-01-24T09:12:47.153Z,3.60
2024-01-24T09:15:13.832Z,3.52
2024-01-24T09:17:40.321Z,3.79
2024-01-24T09:20:06.984Z,3.59
2024-01-24T09:22:33.402Z,3.43
2024-01-24T09:25:00.499Z,3.25
2024-01-24T09:27:28.140Z,3.59
2024-01-24T09:29:54.542Z,3.61
2024-01-24T09:32:20.951Z,4.26
2024-01-24T09:34:47.507Z,4.78
2024-01-24T09:37:13.987Z,5.08
2024-01-24T09:39:40.406Z,2.83
2024-01-24T09:42:06.818Z,2.84
2024-01-24T09:44:33.217Z,3.05
2024-01-24T09:46:59.613Z,3.39
2024-01-24T09:49:26.072Z,4.20
2024-01-24T09:51:52.846Z,3.79
2024-01-24T09:54:19.743Z,3.51
2024-01-24T09:56:46.299Z,3.47
2024-01-24T09:59:12.710Z,3.40
2024-01-24T10:01:39.260Z,3.57
2024-01-24T10:04:05.848Z,3.95
2024-01-24T10:06:32.364Z,3.94
2024-01-24T10:08:58.814Z,3.69
2024-01-24T10:11:25.226Z,3.81
2024-01-24T10:13:51.651Z,3.78
2024-01-24T10:16:18.269Z,3.83
2024-01-24T10:18:44.961Z,4.15
2024-01-24T10:21:11.414Z,4.74
2024-01-24T10:23:37.895Z,4.81
2024-01-24T10:26:04.438Z,4.16
2024-01-24T10:28:30.910Z,3.42
2024-01-24T10:30:57.672Z,3.94
2024-01-24T10:33:24.389Z,3.56
2024-01-24T10:35:52.266Z,3.74
2024-01-24T10:38:20.298Z,3.58
2024-01-24T10:40:46.746Z,3.27
2024-01-24T10:43:13.173Z,3.50
2024-01-24T10:45:39.706Z,3.60
2024-01-24T10:48:06.500Z,3.78
2024-01-24T10:50:33.017Z,4.16
2024-01-24T10:52:59.426Z,4.86
2024-01-24T10:55:25.987Z,4.74
2024-01-24T10:57:52.474Z,5.56
2024-01-24T11:00:19.011Z,7.01
2024-01-24T11:02:45.539Z,5.39
2024-01-24T11:05:11.961Z,3.31
2024-01-24T11:07:38.370Z,3.37
2024-01-24T11:10:06.928Z,3.47
2024-01-24T11:12:34.807Z,3.39
2024-01-24T11:15:01.247Z,3.28
2024-01-24T11:17:27.719Z,3.53
2024-01-24T11:19:54.289Z,3.50
2024-01-24T11:22:27.036Z,3.78
2024-01-24T11:24:56.857Z,3.66
2024-01-24T11:27:23.420Z,3.56
2024-01-24T11:29:49.884Z,3.73
2024-01-24T11:32:16.612Z,3.69
2024-01-24T11:34:43.263Z,3.52
2024-01-24T11:37:10.268Z,3.79
2024-01-24T11:39:37.136Z,3.45
2024-01-24T11:42:03.837Z,3.51
2024-01-24T11:44:30.263Z,3.55
2024-01-24T11:46:56.728Z,4.03
2024-01-24T11:49:23.298Z,3.97
2024-01-24T11:51:49.799Z,4.16
2024-01-24T11:54:16.656Z,4.13
2024-01-24T11:56:43.159Z,3.75
2024-01-24T11:59:09.587Z,3.96
2024-01-24T12:01:36.998Z,4.14
2024-01-24T12:04:03.549Z,3.95
2024-01-24T12:06:30.066Z,4.05
2024-01-24T12:08:58.374Z,4.08
2024-01-24T12:11:25.030Z,4.61
2024-01-24T12:13:51.479Z,4.20
2024-01-24T12:16:17.979Z,4.30
2024-01-24T12:18:45.075Z,3.72
2024-01-24T12:21:12.214Z,4.22
2024-01-24T12:23:38.895Z,4.11
2024-01-24T12:26:05.310Z,4.02
2024-01-24T12:28:31.839Z,4.19
2024-01-24T12:30:58.337Z,3.92
2024-01-24T12:33:24.983Z,3.95
2024-01-24T12:35:52.300Z,4.24
2024-01-24T12:38:19.257Z,4.44
2024-01-24T12:40:45.773Z,4.28
2024-01-24T12:43:12.277Z,3.92
2024-01-24T12:45:40.436Z,4.17
2024-01-24T12:48:07.611Z,4.32
2024-01-24T12:50:34.202Z,4.51
2024-01-24T12:53:00.950Z,4.42
2024-01-24T12:55:27.508Z,4.34
2024-01-24T12:57:53.943Z,4.41
2024-01-24T13:00:20.427Z,4.22
2024-01-24T13:02:46.883Z,4.29
2024-01-24T13:05:13.499Z,4.32
2024-01-24T13:07:40.247Z,4.57
2024-01-24T13:10:07.380Z,4.80
2024-01-24T13:12:34.630Z,4.41
2024-01-24T13:15:01.481Z,4.64
2024-01-24T13:17:28.036Z,4.74
2024-01-24T13:19:54.688Z,5.08
2024-01-24T13:22:21.146Z,4.08
2024-01-24T13:24:47.641Z,4.44
2024-01-24T13:27:17.896Z,4.76
2024-01-24T13:29:44.338Z,4.17
2024-01-24T13:32:11.160Z,4.20
2024-01-24T13:34:40.570Z,4.64
2024-01-24T13:37:07.149Z,4.42
2024-01-24T13:39:33.894Z,4.68
2024-01-24T13:42:00.937Z,4.40
2024-01-24T13:44:27.375Z,4.05
2024-01-24T13:46:53.824Z,3.56
2024-01-24T13:49:20.328Z,3.65
2024-01-24T13:51:46.822Z,3.44
2024-01-24T13:54:13.300Z,3.34
2024-01-24T13:56:40.067Z,3.12
2024-01-24T13:59:06.566Z,2.83
2024-01-24T14:01:36.137Z,3.55
2024-01-24T14:04:07.057Z,2.64
2024-01-24T14:06:33.782Z,1.75
2024-01-24T14:09:00.437Z,1.38
2024-01-24T14:11:26.936Z,1.46
2024-01-24T14:13:56.472Z,1.12
2024-01-24T14:16:22.926Z,1.31
2024-01-24T14:18:51.944Z,1.35
2024-01-24T14:21:19.742Z,2.25
2024-01-24T14:23:46.200Z,1.84
2024-01-24T14:26:12.582Z,1.77
2024-01-24T14:28:38.983Z,1.92
2024-01-24T14:31:05.503Z,1.35
2024-01-24T14:33:34.963Z,1.37
2024-01-24T14:36:01.973Z,1.57
2024-01-24T14:38:28.397Z,1.59
2024-01-24T14:40:54.833Z,3.59
2024-01-24T14:43:21.287Z,2.35
2024-01-24T14:45:47.727Z,1.57
2024-01-24T14:48:14.310Z,1.53
2024-01-24T14:50:40.766Z,1.07
2024-01-24T14:53:07.189Z,1.32
2024-01-24T14:55:33.596Z,1.10
2024-01-24T14:58:00.005Z,1.29
2024-01-24T15:00:26.453Z,0.90
2024-01-24T15:02:52.865Z,1.02
2024-01-24T15:05:19.268Z,0.91
2024-01-24T15:07:45.878Z,0.80
2024-01-24T15:10:12.481Z,0.98
2024-01-24T15:12:39.017Z,1.26
2024-01-24T15:15:05.450Z,1.10
2024-01-24T15:17:31.895Z,1.32
2024-01-24T15:19:58.786Z,1.29
2024-01-24T15:22:25.462Z,1.39
2024-01-24T15:24:52.000Z,1.27
2024-01-24T15:27:18.444Z,1.15
2024-01-24T15:29:45.356Z,1.29
2024-01-24T15:32:11.845Z,1.10
2024-01-24T15:34:38.346Z,1.21
2024-01-24T15:37:05.185Z,1.26
2024-01-24T15:39:31.901Z,1.07
2024-01-24T15:41:58.314Z,0.80
2024-01-24T15:44:24.760Z,0.93
2024-01-24T15:46:51.148Z,1.05
2024-01-24T15:49:20.195Z,0.85
2024-01-24T15:51:46.654Z,0.88
2024-01-24T15:54:13.123Z,0.88
2024-01-24T15:56:39.589Z,0.92
2024-01-24T15:59:06.041Z,0.86
2024-01-24T16:01:32.494Z,0.75
2024-01-24T16:03:59.462Z,0.74
2024-01-24T16:06:26.124Z,0.64
2024-01-24T16:08:52.729Z,0.76
2024-01-24T16:11:19.521Z,1.08
2024-01-24T16:13:45.930Z,0.77
2024-01-24T16:16:12.417Z,0.76
2024-01-24T16:18:38.967Z,0.71
2024-01-24T16:21:05.435Z,0.80
2024-01-24T16:23:31.871Z,0.77
2024-01-24T16:25:58.257Z,0.63
2024-01-24T16:28:24.712Z,0.82
2024-01-24T16:30:51.147Z,0.89
2024-01-24T16:33:18.837Z,0.75
2024-01-24T16:35:45.307Z,0.83
2024-01-24T16:38:11.705Z,0.97
2024-01-24T16:40:38.112Z,0.93
2024-01-24T16:43:04.529Z,0.68
2024-01-24T16:45:31.038Z,0.57
2024-01-24T16:47:57.491Z,0.70
2024-01-24T16:50:23.918Z,1.01
2024-01-24T16:52:50.979Z,0.79
2024-01-24T16:55:17.564Z,0.70
2024-01-24T16:57:43.997Z,0.53
2024-01-24T17:00:10.969Z,0.91
2024-01-24T17:02:42.771Z,0.89
2024-01-24T17:05:13.082Z,0.74
2024-01-24T17:07:39.499Z,0.57
2024-01-24T17:10:06.040Z,0.72
2024-01-24T17:12:32.534Z,0.82
2024-01-24T17:14:58.961Z,0.94
2024-01-24T17:17:25.526Z,1.42
2024-01-24T17:19:52.217Z,1.44
2024-01-24T17:22:18.694Z,1.19
2024-01-24T17:24:45.182Z,1.17
2024-01-24T17:27:11.604Z,1.17
2024-01-24T17:29:38.017Z,1.42
2024-01-24T17:32:04.474Z,2.06
2024-01-24T17:34:30.989Z,2.24
2024-01-24T17:36:57.507Z,3.08
2024-01-24T17:39:25.612Z,4.26
2024-01-24T17:41:52.479Z,4.50
2024-01-24T17:44:19.000Z,3.26
2024-01-24T17:46:45.425Z,2.17
2024-01-24T17:49:12.054Z,2.79
2024-01-24T17:51:40.578Z,2.97
2024-01-24T17:54:07.056Z,1.76
2024-01-24T17:56:33.530Z,2.38
2024-01-24T17:59:00.009Z,2.76
2024-01-24T18:01:26.547Z,2.79
2024-01-24T18:03:53.193Z,2.58
2024-01-24T18:06:19.627Z,3.33
2024-01-24T18:08:46.302Z,3.78
2024-01-24T18:11:12.895Z,2.54
2024-01-24T18:13:39.296Z,2.90
2024-01-24T18:16:05.862Z,3.61
2024-01-24T18:18:32.438Z,3.89
2024-01-24T18:20:58.913Z,3.73
2024-01-24T18:23:25.321Z,2.42
2024-01-24T18:25:51.783Z,2.74
2024-01-24T18:28:18.193Z,4.76
2024-01-24T18:30:44.777Z,4.89
2024-01-24T18:33:11.405Z,3.70
2024-01-24T18:35:37.877Z,3.37
2024-01-24T18:38:04.334Z,2.61
2024-01-24T18:40:30.754Z,1.79
2024-01-24T18:42:57.191Z,1.67
2024-01-24T18:45:23.936Z,1.50
2024-01-24T18:47:50.488Z,2.43
2024-01-24T18:50:17.354Z,5.59
2024-01-24T18:52:43.833Z,4.53
2024-01-24T18:55:11.011Z,3.30
2024-01-24T18:57:37.505Z,2.58
2024-01-24T19:00:04.110Z,2.45
2024-01-24T19:02:30.699Z,2.53
2024-01-24T19:04:57.336Z,3.06
2024-01-24T19:07:23.972Z,2.68
2024-01-24T19:09:51.144Z,3.37
2024-01-24T19:12:17.667Z,2.41
2024-01-24T19:14:44.238Z,2.22
2024-01-24T19:17:10.792Z,2.67
2024-01-24T19:19:37.381Z,1.81
2024-01-24T19:22:04.164Z,1.49
2024-01-24T19:24:30.690Z,1.79
2024-01-24T19:26:57.473Z,2.11
2024-01-24T19:29:25.295Z,8.44
2024-01-24T19:31:51.748Z,7.67
2024-01-24T19:34:18.263Z,7.43
2024-01-24T19:36:44.780Z,2.61
2024-01-24T19:39:11.172Z,2.18
2024-01-24T19:41:37.574Z,2.69
2024-01-24T19:44:04.087Z,2.32
2024-01-24T19:46:30.503Z,2.57
2024-01-24T19:48:56.979Z,3.14
2024-01-24T19:51:23.519Z,3.27
2024-01-24T19:53:49.940Z,4.66
2024-01-24T19:56:16.514Z,4.24
2024-01-24T19:58:42.917Z,4.34
2024-01-24T20:01:09.429Z,4.19
2024-01-24T20:03:35.895Z,3.03
2024-01-24T20:06:02.314Z,2.93
2024-01-24T20:08:28.810Z,3.77
2024-01-24T20:10:55.247Z,4.17
2024-01-24T20:13:21.634Z,3.97
2024-01-24T20:15:48.097Z,3.49
2024-01-24T20:18:14.613Z,3.51
2024-01-24T20:20:41.264Z,3.05
2024-01-24T20:23:07.666Z,2.66
2024-01-24T20:25:34.151Z,2.22
2024-01-24T20:28:00.582Z,3.02
2024-01-24T20:30:27.030Z,3.48
2024-01-24T20:33:01.180Z,4.25
2024-01-24T20:35:31.128Z,3.76
2024-01-24T20:37:58.000Z,3.76
2024-01-24T20:40:24.397Z,3.69
2024-01-24T20:42:50.876Z,2.93
2024-01-24T20:45:17.355Z,3.90
2024-01-24T20:47:43.817Z,5.31
2024-01-24T20:50:10.305Z,5.73
2024-01-24T20:52:36.844Z,4.12
2024-01-24T20:55:03.267Z,3.64
2024-01-24T20:57:30.316Z,3.68
2024-01-24T20:59:57.042Z,3.79
2024-01-24T21:02:23.570Z,3.47
2024-01-24T21:04:50.335Z,3.72
2024-01-24T21:07:17.039Z,3.81
2024-01-24T21:09:43.537Z,4.54
2024-01-24T21:12:11.635Z,4.69
2024-01-24T21:14:39.141Z,4.86
2024-01-24T21:17:05.541Z,3.81
2024-01-24T21:19:32.072Z,3.60
2024-01-24T21:21:58.735Z,3.79
2024-01-24T21:24:25.263Z,4.09
2024-01-24T21:26:52.189Z,4.61
2024-01-24T21:29:18.570Z,4.07
2024-01-24T21:31:44.985Z,3.97
2024-01-24T21:34:11.764Z,3.96
2024-01-24T21:36:38.809Z,3.95
2024-01-24T21:39:06.657Z,3.75
2024-01-24T21:41:33.121Z,3.84
2024-01-24T21:43:59.561Z,3.82
2024-01-24T21:46:25.974Z,3.57
2024-01-24T21:48:52.405Z,3.13
2024-01-24T21:51:18.839Z,2.24
2024-01-24T21:53:45.253Z,2.38
2024-01-24T21:56:12.444Z,3.15
2024-01-24T21:58:39.761Z,2.82
2024-01-24T22:01:06.245Z,2.88
2024-01-24T22:03:32.725Z,2.71
2024-01-24T22:05:59.180Z,2.54
2024-01-24T22:08:25.743Z,2.85
2024-01-24T22:10:52.205Z,3.60
2024-01-24T22:13:18.745Z,3.81
2024-01-24T22:15:45.280Z,3.90
2024-01-24T22:18:11.849Z,3.58
2024-01-24T22:20:38.330Z,3.83
2024-01-24T22:23:04.819Z,4.21
2024-01-24T22:25:31.264Z,4.50
2024-01-24T22:27:57.764Z,5.43
2024-01-24T22:30:24.225Z,5.86
2024-01-24T22:32:50.709Z,7.61
2024-01-24T22:35:18.033Z,8.54
2024-01-24T22:37:44.508Z,6.63
2024-01-24T22:40:11.112Z,5.58
2024-01-24T22:42:37.692Z,4.43
2024-01-24T22:45:04.185Z,4.18
2024-01-24T22:47:30.800Z,3.93
2024-01-24T22:49:57.487Z,3.42
2024-01-24T22:52:24.088Z,2.48
2024-01-24T22:54:50.586Z,2.73
2024-01-24T22:57:17.326Z,3.86
2024-01-24T22:59:43.765Z,3.89
2024-01-24T23:02:10.457Z,4.23
2024-01-24T23:04:37.191Z,3.95
2024-01-24T23:07:03.785Z,3.60
2024-01-24T23:09:30.322Z,2.80
2024-01-24T23:11:56.791Z,2.77
2024-01-24T23:14:23.261Z,4.35
2024-01-24T23:16:49.725Z,5.18
2024-01-24T23:19:16.231Z,5.39
2024-01-24T23:21:42.704Z,4.90
2024-01-24T23:24:09.171Z,4.65
2024-01-24T23:26:35.614Z,4.70
2024-01-24T23:29:02.014Z,3.87
2024-01-24T23:31:28.404Z,3.99
2024-01-24T23:33:55.048Z,4.55
2024-01-24T23:36:21.536Z,4.18
2024-01-24T23:38:47.978Z,3.99
2024-01-24T23:41:14.400Z,3.62
2024-01-24T23:43:40.808Z,3.33
2024-01-24T23:46:07.261Z,3.95
2024-01-24T23:48:33.772Z,4.60
2024-01-24T23:51:00.751Z,4.33
2024-01-24T23:53:27.299Z,4.49
2024-01-24T23:55:53.713Z,4.44
2024-01-24T23:58:20.260Z,4.33
